sensor_id;sensor_type;location;lat;lon;timestamp;P1;P2;P0
73623;PMS5003;61921;53.226;-1.296;2023-02-28T00:00:35;19;17;
73623;PMS5003;61921;53.226;-1.296;2023-02-28T00:03:00;14;14;
73623;PMS5003;61921;53.226;-1.296;2023-02-28T00:05:26;15;14;
73623;PMS5003;61921;53.226;-1.296;2023-02-28T00:07:51;12;12;
73623;PMS5003;61921;53.226;-1.296;2023-02-28T00:10:17;12;12;
73623;PMS5003;61921;53.226;-1.296;2023-02-28T00:12:42;12;11;
73623;PMS5003;61921;53.226;-1.296;2023-02-28T00:15:09;15;12;
73623;PMS5003;61921;53.226;-1.296;2023-02-28T00:17:33;16;13;
73623;PMS5003;61921;53.226;-1.296;2023-02-28T00:19:59;14;14;
73623;PMS5003;61921;53.226;-1.296;2023-02-28T00:22:24;11;11;
73623;PMS5003;61921;53.226;-1.296;2023-02-28T00:24:49;12;12;
73623;PMS5003;61921;53.226;-1.296;2023-02-28T00:27:15;14;11;
73623;PMS5003;61921;53.226;-1.296;2023-02-28T00:29:40;12;12;
73623;PMS5003;61921;53.226;-1.296;2023-02-28T00:32:06;8;8;
73623;PMS5003;61921;53.226;-1.296;2023-02-28T00:34:32;9;9;
73623;PMS5003;61921;53.226;-1.296;2023-02-28T00:36:57;9;9;
73623;PMS5003;61921;53.226;-1.296;2023-02-28T00:39:22;12;12;
73623;PMS5003;61921;53.226;-1.296;2023-02-28T00:41:48;8;8;
73623;PMS5003;61921;53.226;-1.296;2023-02-28T00:44:14;13;12;
73623;PMS5003;61921;53.226;-1.296;2023-02-28T00:46:41;12;12;
73623;PMS5003;61921;53.226;-1.296;2023-02-28T00:49:05;14;12;
73623;PMS5003;61921;53.226;-1.296;2023-02-28T00:51:31;13;12;
73623;PMS5003;61921;53.226;-1.296;2023-02-28T00:53:56;16;13;
73623;PMS5003;61921;53.226;-1.296;2023-02-28T00:56:21;9;9;
73623;PMS5003;61921;53.226;-1.296;2023-02-28T00:58:47;15;14;
73623;PMS5003;61921;53.226;-1.296;2023-02-28T01:01:13;16;12;
73623;PMS5003;61921;53.226;-1.296;2023-02-28T01:03:38;14;13;
73623;PMS5003;61921;53.226;-1.296;2023-02-28T01:06:03;19;18;
73623;PMS5003;61921;53.226;-1.296;2023-02-28T01:08:28;17;17;
73623;PMS5003;61921;53.226;-1.296;2023-02-28T01:10:54;16;16;
73623;PMS5003;61921;53.226;-1.296;2023-02-28T01:13:19;20;16;
73623;PMS5003;61921;53.226;-1.296;2023-02-28T01:15:48;22;18;
73623;PMS5003;61921;53.226;-1.296;2023-02-28T01:18:10;20;16;
73623;PMS5003;61921;53.226;-1.296;2023-02-28T01:20:36;19;19;
73623;PMS5003;61921;53.226;-1.296;2023-02-28T01:23:01;22;22;
73623;PMS5003;61921;53.226;-1.296;2023-02-28T01:25:27;25;20;
73623;PMS5003;61921;53.226;-1.296;2023-02-28T01:27:52;25;22;
73623;PMS5003;61921;53.226;-1.296;2023-02-28T01:30:17;28;28;
73623;PMS5003;61921;53.226;-1.296;2023-02-28T01:32:43;22;21;
73623;PMS5003;61921;53.226;-1.296;2023-02-28T01:35:08;18;18;
73623;PMS5003;61921;53.226;-1.296;2023-02-28T01:37:34;18;18;
73623;PMS5003;61921;53.226;-1.296;2023-02-28T01:40:00;21;18;
73623;PMS5003;61921;53.226;-1.296;2023-02-28T01:42:25;12;12;
73623;PMS5003;61921;53.226;-1.296;2023-02-28T01:44:59;15;15;
73623;PMS5003;61921;53.226;-1.296;2023-02-28T01:47:16;14;13;
73623;PMS5003;61921;53.226;-1.296;2023-02-28T01:49:42;11;11;
73623;PMS5003;61921;53.226;-1.296;2023-02-28T01:52:07;13;13;
73623;PMS5003;61921;53.226;-1.296;2023-02-28T01:54:33;13;13;
73623;PMS5003;61921;53.226;-1.296;2023-02-28T01:56:59;11;11;
73623;PMS5003;61921;53.226;-1.296;2023-02-28T01:59:24;14;14;
73623;PMS5003;61921;53.226;-1.296;2023-02-28T02:01:49;11;11;
73623;PMS5003;61921;53.226;-1.296;2023-02-28T02:04:15;14;12;
73623;PMS5003;61921;53.226;-1.296;2023-02-28T02:06:42;11;10;
73623;PMS5003;61921;53.226;-1.296;2023-02-28T02:09:06;12;12;
73623;PMS5003;61921;53.226;-1.296;2023-02-28T02:11:32;11;10;
73623;PMS5003;61921;53.226;-1.296;2023-02-28T02:14:01;10;10;
73623;PMS5003;61921;53.226;-1.296;2023-02-28T02:16:28;12;11;
73623;PMS5003;61921;53.226;-1.296;2023-02-28T02:18:50;12;10;
73623;PMS5003;61921;53.226;-1.296;2023-02-28T02:26:10;11;8;
73623;PMS5003;61921;53.226;-1.296;2023-02-28T02:28:36;8;8;
73623;PMS5003;61921;53.226;-1.296;2023-02-28T02:31:06;15;15;
73623;PMS5003;61921;53.226;-1.296;2023-02-28T02:33:25;17;16;
73623;PMS5003;61921;53.226;-1.296;2023-02-28T02:35:47;20;18;
73623;PMS5003;61921;53.226;-1.296;2023-02-28T02:38:14;26;25;
73623;PMS5003;61921;53.226;-1.296;2023-02-28T02:40:39;25;22;
73623;PMS5003;61921;53.226;-1.296;2023-02-28T02:43:04;21;20;
73623;PMS5003;61921;53.226;-1.296;2023-02-28T02:45:29;35;30;
73623;PMS5003;61921;53.226;-1.296;2023-02-28T02:47:54;29;26;
73623;PMS5003;61921;53.226;-1.296;2023-02-28T02:50:21;30;27;
73623;PMS5003;61921;53.226;-1.296;2023-02-28T02:52:45;25;22;
73623;PMS5003;61921;53.226;-1.296;2023-02-28T02:55:10;21;18;
73623;PMS5003;61921;53.226;-1.296;2023-02-28T02:57:36;27;23;
73623;PMS5003;61921;53.226;-1.296;2023-02-28T03:00:00;30;26;
73623;PMS5003;61921;53.226;-1.296;2023-02-28T03:02:25;23;23;
73623;PMS5003;61921;53.226;-1.296;2023-02-28T03:04:51;22;20;
73623;PMS5003;61921;53.226;-1.296;2023-02-28T03:07:16;26;23;
73623;PMS5003;61921;53.226;-1.296;2023-02-28T03:12:09;21;20;
73623;PMS5003;61921;53.226;-1.296;2023-02-28T03:14:37;26;23;
73623;PMS5003;61921;53.226;-1.296;2023-02-28T03:17:08;21;20;
73623;PMS5003;61921;53.226;-1.296;2023-02-28T03:19:27;24;18;
73623;PMS5003;61921;53.226;-1.296;2023-02-28T03:21:50;16;16;
73623;PMS5003;61921;53.226;-1.296;2023-02-28T03:24:15;19;19;
73623;PMS5003;61921;53.226;-1.296;2023-02-28T03:26:41;22;22;
73623;PMS5003;61921;53.226;-1.296;2023-02-28T03:29:06;20;18;
73623;PMS5003;61921;53.226;-1.296;2023-02-28T03:31:31;17;16;
73623;PMS5003;61921;53.226;-1.296;2023-02-28T03:33:57;22;18;
73623;PMS5003;61921;53.226;-1.296;2023-02-28T03:36:21;20;15;
73623;PMS5003;61921;53.226;-1.296;2023-02-28T03:38:47;17;14;
73623;PMS5003;61921;53.226;-1.296;2023-02-28T03:41:12;15;14;
73623;PMS5003;61921;53.226;-1.296;2023-02-28T03:43:38;16;15;
73623;PMS5003;61921;53.226;-1.296;2023-02-28T03:46:04;12;11;
73623;PMS5003;61921;53.226;-1.296;2023-02-28T03:48:31;13;13;
73623;PMS5003;61921;53.226;-1.296;2023-02-28T03:50:54;16;15;
73623;PMS5003;61921;53.226;-1.296;2023-02-28T03:53:21;13;13;
73623;PMS5003;61921;53.226;-1.296;2023-02-28T03:55:45;17;15;
73623;PMS5003;61921;53.226;-1.296;2023-02-28T03:58:12;14;14;
73623;PMS5003;61921;53.226;-1.296;2023-02-28T04:00:36;17;14;
73623;PMS5003;61921;53.226;-1.296;2023-02-28T04:03:01;11;11;
73623;PMS5003;61921;53.226;-1.296;2023-02-28T04:05:27;16;15;
73623;PMS5003;61921;53.226;-1.296;2023-02-28T04:07:52;16;14;
73623;PMS5003;61921;53.226;-1.296;2023-02-28T04:10:18;16;13;
73623;PMS5003;61921;53.226;-1.296;2023-02-28T04:12:43;12;11;
73623;PMS5003;61921;53.226;-1.296;2023-02-28T04:15:09;16;14;
73623;PMS5003;61921;53.226;-1.296;2023-02-28T04:17:34;13;13;
73623;PMS5003;61921;53.226;-1.296;2023-02-28T04:19:59;11;11;
73623;PMS5003;61921;53.226;-1.296;2023-02-28T04:22:25;13;13;
73623;PMS5003;61921;53.226;-1.296;2023-02-28T04:24:51;15;12;
73623;PMS5003;61921;53.226;-1.296;2023-02-28T04:27:16;12;11;
73623;PMS5003;61921;53.226;-1.296;2023-02-28T04:29:42;14;13;
73623;PMS5003;61921;53.226;-1.296;2023-02-28T04:32:07;15;14;
73623;PMS5003;61921;53.226;-1.296;2023-02-28T04:34:33;13;13;
73623;PMS5003;61921;53.226;-1.296;2023-02-28T04:36:58;19;15;
73623;PMS5003;61921;53.226;-1.296;2023-02-28T04:39:24;13;11;
73623;PMS5003;61921;53.226;-1.296;2023-02-28T04:41:50;15;13;
73623;PMS5003;61921;53.226;-1.296;2023-02-28T04:44:15;22;16;
73623;PMS5003;61921;53.226;-1.296;2023-02-28T04:46:40;16;14;
73623;PMS5003;61921;53.226;-1.296;2023-02-28T04:49:06;16;16;
73623;PMS5003;61921;53.226;-1.296;2023-02-28T04:51:31;14;13;
73623;PMS5003;61921;53.226;-1.296;2023-02-28T04:53:57;21;20;
73623;PMS5003;61921;53.226;-1.296;2023-02-28T04:56:23;22;21;
73623;PMS5003;61921;53.226;-1.296;2023-02-28T04:58:48;29;27;
73623;PMS5003;61921;53.226;-1.296;2023-02-28T05:01:17;36;30;
73623;PMS5003;61921;53.226;-1.296;2023-02-28T05:03:39;25;24;
73623;PMS5003;61921;53.226;-1.296;2023-02-28T05:06:04;28;26;
73623;PMS5003;61921;53.226;-1.296;2023-02-28T05:08:30;43;35;
73623;PMS5003;61921;53.226;-1.296;2023-02-28T05:10:55;30;27;
73623;PMS5003;61921;53.226;-1.296;2023-02-28T05:13:20;33;33;
73623;PMS5003;61921;53.226;-1.296;2023-02-28T05:15:45;32;31;
73623;PMS5003;61921;53.226;-1.296;2023-02-28T05:18:10;24;23;
73623;PMS5003;61921;53.226;-1.296;2023-02-28T05:20:36;39;34;
73623;PMS5003;61921;53.226;-1.296;2023-02-28T05:23:01;33;27;
73623;PMS5003;61921;53.226;-1.296;2023-02-28T05:25:27;34;31;
73623;PMS5003;61921;53.226;-1.296;2023-02-28T05:27:52;37;30;
73623;PMS5003;61921;53.226;-1.296;2023-02-28T05:30:17;32;26;
73623;PMS5003;61921;53.226;-1.296;2023-02-28T05:32:43;34;29;
73623;PMS5003;61921;53.226;-1.296;2023-02-28T05:35:09;42;35;
73623;PMS5003;61921;53.226;-1.296;2023-02-28T05:37:34;37;29;
73623;PMS5003;61921;53.226;-1.296;2023-02-28T05:40:00;38;33;
73623;PMS5003;61921;53.226;-1.296;2023-02-28T05:42:25;34;29;
73623;PMS5003;61921;53.226;-1.296;2023-02-28T05:44:51;27;24;
73623;PMS5003;61921;53.226;-1.296;2023-02-28T05:47:16;25;25;
73623;PMS5003;61921;53.226;-1.296;2023-02-28T05:49:42;27;27;
73623;PMS5003;61921;53.226;-1.296;2023-02-28T05:52:07;25;24;
73623;PMS5003;61921;53.226;-1.296;2023-02-28T05:54:33;28;25;
73623;PMS5003;61921;53.226;-1.296;2023-02-28T05:56:58;17;16;
73623;PMS5003;61921;53.226;-1.296;2023-02-28T05:59:24;17;17;
73623;PMS5003;61921;53.226;-1.296;2023-02-28T06:01:49;19;15;
73623;PMS5003;61921;53.226;-1.296;2023-02-28T06:04:15;20;16;
73623;PMS5003;61921;53.226;-1.296;2023-02-28T06:06:40;13;13;
73623;PMS5003;61921;53.226;-1.296;2023-02-28T06:09:06;13;13;
73623;PMS5003;61921;53.226;-1.296;2023-02-28T06:11:31;15;15;
73623;PMS5003;61921;53.226;-1.296;2023-02-28T06:13:57;16;14;
73623;PMS5003;61921;53.226;-1.296;2023-02-28T06:16:22;13;13;
73623;PMS5003;61921;53.226;-1.296;2023-02-28T06:18:47;17;14;
73623;PMS5003;61921;53.226;-1.296;2023-02-28T06:21:13;17;17;
73623;PMS5003;61921;53.226;-1.296;2023-02-28T06:23:38;14;14;
73623;PMS5003;61921;53.226;-1.296;2023-02-28T06:26:03;21;18;
73623;PMS5003;61921;53.226;-1.296;2023-02-28T06:28:29;21;17;
73623;PMS5003;61921;53.226;-1.296;2023-02-28T06:30:54;18;18;
73623;PMS5003;61921;53.226;-1.296;2023-02-28T06:33:20;18;16;
73623;PMS5003;61921;53.226;-1.296;2023-02-28T06:35:46;25;22;
73623;PMS5003;61921;53.226;-1.296;2023-02-28T06:38:11;18;17;
73623;PMS5003;61921;53.226;-1.296;2023-02-28T06:40:36;16;15;
73623;PMS5003;61921;53.226;-1.296;2023-02-28T06:43:02;16;16;
73623;PMS5003;61921;53.226;-1.296;2023-02-28T06:45:28;15;15;
73623;PMS5003;61921;53.226;-1.296;2023-02-28T06:47:53;17;13;
73623;PMS5003;61921;53.226;-1.296;2023-02-28T06:50:19;14;13;
73623;PMS5003;61921;53.226;-1.296;2023-02-28T06:52:44;16;14;
73623;PMS5003;61921;53.226;-1.296;2023-02-28T06:55:10;13;12;
73623;PMS5003;61921;53.226;-1.296;2023-02-28T06:57:36;13;12;
73623;PMS5003;61921;53.226;-1.296;2023-02-28T07:00:03;14;13;
73623;PMS5003;61921;53.226;-1.296;2023-02-28T07:02:27;16;16;
73623;PMS5003;61921;53.226;-1.296;2023-02-28T07:04:52;27;22;
73623;PMS5003;61921;53.226;-1.296;2023-02-28T07:07:18;23;18;
73623;PMS5003;61921;53.226;-1.296;2023-02-28T07:09:44;18;17;
73623;PMS5003;61921;53.226;-1.296;2023-02-28T07:12:09;22;19;
73623;PMS5003;61921;53.226;-1.296;2023-02-28T07:14:36;22;18;
73623;PMS5003;61921;53.226;-1.296;2023-02-28T07:17:01;26;25;
73623;PMS5003;61921;53.226;-1.296;2023-02-28T07:19:26;24;19;
73623;PMS5003;61921;53.226;-1.296;2023-02-28T07:21:51;19;17;
73623;PMS5003;61921;53.226;-1.296;2023-02-28T07:24:16;16;16;
73623;PMS5003;61921;53.226;-1.296;2023-02-28T07:26:41;23;22;
73623;PMS5003;61921;53.226;-1.296;2023-02-28T07:29:07;19;15;
73623;PMS5003;61921;53.226;-1.296;2023-02-28T07:31:32;25;23;
73623;PMS5003;61921;53.226;-1.296;2023-02-28T07:33:58;18;15;
73623;PMS5003;61921;53.226;-1.296;2023-02-28T07:36:23;21;17;
73623;PMS5003;61921;53.226;-1.296;2023-02-28T07:38:49;23;17;
73623;PMS5003;61921;53.226;-1.296;2023-02-28T07:41:15;13;12;
73623;PMS5003;61921;53.226;-1.296;2023-02-28T07:43:40;19;15;
73623;PMS5003;61921;53.226;-1.296;2023-02-28T07:46:07;14;12;
73623;PMS5003;61921;53.226;-1.296;2023-02-28T07:48:31;15;14;
73623;PMS5003;61921;53.226;-1.296;2023-02-28T07:50:57;14;12;
73623;PMS5003;61921;53.226;-1.296;2023-02-28T07:53:22;15;12;
73623;PMS5003;61921;53.226;-1.296;2023-02-28T07:55:48;22;19;
73623;PMS5003;61921;53.226;-1.296;2023-02-28T07:58:13;15;14;
73623;PMS5003;61921;53.226;-1.296;2023-02-28T08:00:39;18;17;
73623;PMS5003;61921;53.226;-1.296;2023-02-28T08:03:05;18;15;
73623;PMS5003;61921;53.226;-1.296;2023-02-28T08:05:30;15;12;
73623;PMS5003;61921;53.226;-1.296;2023-02-28T08:07:56;12;9;
73623;PMS5003;61921;53.226;-1.296;2023-02-28T08:10:21;16;12;
73623;PMS5003;61921;53.226;-1.296;2023-02-28T08:12:47;14;11;
73623;PMS5003;61921;53.226;-1.296;2023-02-28T08:15:12;14;11;
73623;PMS5003;61921;53.226;-1.296;2023-02-28T08:17:38;17;17;
73623;PMS5003;61921;53.226;-1.296;2023-02-28T08:20:05;16;16;
73623;PMS5003;61921;53.226;-1.296;2023-02-28T08:22:29;16;14;
73623;PMS5003;61921;53.226;-1.296;2023-02-28T08:24:55;21;17;
73623;PMS5003;61921;53.226;-1.296;2023-02-28T08:27:20;26;24;
73623;PMS5003;61921;53.226;-1.296;2023-02-28T08:29:45;18;16;
73623;PMS5003;61921;53.226;-1.296;2023-02-28T08:32:11;21;18;
73623;PMS5003;61921;53.226;-1.296;2023-02-28T08:34:38;31;27;
73623;PMS5003;61921;53.226;-1.296;2023-02-28T08:37:02;20;20;
73623;PMS5003;61921;53.226;-1.296;2023-02-28T08:39:27;22;19;
73623;PMS5003;61921;53.226;-1.296;2023-02-28T08:41:53;19;17;
73623;PMS5003;61921;53.226;-1.296;2023-02-28T08:44:18;22;19;
73623;PMS5003;61921;53.226;-1.296;2023-02-28T08:46:44;22;22;
73623;PMS5003;61921;53.226;-1.296;2023-02-28T08:49:09;22;22;
73623;PMS5003;61921;53.226;-1.296;2023-02-28T08:51:34;25;23;
73623;PMS5003;61921;53.226;-1.296;2023-02-28T08:54:00;27;26;
73623;PMS5003;61921;53.226;-1.296;2023-02-28T08:56:25;23;22;
73623;PMS5003;61921;53.226;-1.296;2023-02-28T08:58:51;27;22;
73623;PMS5003;61921;53.226;-1.296;2023-02-28T09:01:17;22;19;
73623;PMS5003;61921;53.226;-1.296;2023-02-28T09:03:42;27;26;
73623;PMS5003;61921;53.226;-1.296;2023-02-28T09:06:07;30;25;
73623;PMS5003;61921;53.226;-1.296;2023-02-28T09:08:33;23;21;
73623;PMS5003;61921;53.226;-1.296;2023-02-28T09:10:58;25;20;
73623;PMS5003;61921;53.226;-1.296;2023-02-28T09:13:24;29;25;
73623;PMS5003;61921;53.226;-1.296;2023-02-28T09:15:49;25;21;
73623;PMS5003;61921;53.226;-1.296;2023-02-28T09:18:14;25;23;
73623;PMS5003;61921;53.226;-1.296;2023-02-28T09:20:40;20;18;
73623;PMS5003;61921;53.226;-1.296;2023-02-28T09:23:05;26;22;
73623;PMS5003;61921;53.226;-1.296;2023-02-28T09:25:30;19;17;
73623;PMS5003;61921;53.226;-1.296;2023-02-28T09:27:56;16;15;
73623;PMS5003;61921;53.226;-1.296;2023-02-28T09:30:21;17;17;
73623;PMS5003;61921;53.226;-1.296;2023-02-28T09:32:46;23;17;
73623;PMS5003;61921;53.226;-1.296;2023-02-28T09:35:12;21;16;
73623;PMS5003;61921;53.226;-1.296;2023-02-28T09:37:38;22;21;
73623;PMS5003;61921;53.226;-1.296;2023-02-28T09:40:04;24;18;
73623;PMS5003;61921;53.226;-1.296;2023-02-28T09:42:30;16;14;
73623;PMS5003;61921;53.226;-1.296;2023-02-28T09:44:54;19;16;
73623;PMS5003;61921;53.226;-1.296;2023-02-28T09:47:24;17;15;
73623;PMS5003;61921;53.226;-1.296;2023-02-28T09:49:46;16;15;
73623;PMS5003;61921;53.226;-1.296;2023-02-28T09:52:12;18;17;
73623;PMS5003;61921;53.226;-1.296;2023-02-28T09:54:36;16;16;
73623;PMS5003;61921;53.226;-1.296;2023-02-28T09:57:06;18;17;
73623;PMS5003;61921;53.226;-1.296;2023-02-28T09:59:30;14;13;
73623;PMS5003;61921;53.226;-1.296;2023-02-28T10:01:54;14;14;
73623;PMS5003;61921;53.226;-1.296;2023-02-28T10:04:23;16;15;
73623;PMS5003;61921;53.226;-1.296;2023-02-28T10:06:44;16;14;
73623;PMS5003;61921;53.226;-1.296;2023-02-28T10:09:11;14;13;
73623;PMS5003;61921;53.226;-1.296;2023-02-28T10:11:35;15;14;
73623;PMS5003;61921;53.226;-1.296;2023-02-28T10:14:01;16;14;
73623;PMS5003;61921;53.226;-1.296;2023-02-28T10:16:28;12;12;
73623;PMS5003;61921;53.226;-1.296;2023-02-28T10:18:52;13;13;
73623;PMS5003;61921;53.226;-1.296;2023-02-28T10:21:18;13;13;
73623;PMS5003;61921;53.226;-1.296;2023-02-28T10:23:42;16;14;
73623;PMS5003;61921;53.226;-1.296;2023-02-28T10:26:09;18;15;
73623;PMS5003;61921;53.226;-1.296;2023-02-28T10:28:33;15;13;
73623;PMS5003;61921;53.226;-1.296;2023-02-28T10:30:58;12;10;
73623;PMS5003;61921;53.226;-1.296;2023-02-28T10:33:25;17;14;
73623;PMS5003;61921;53.226;-1.296;2023-02-28T10:35:50;14;12;
73623;PMS5003;61921;53.226;-1.296;2023-02-28T10:38:16;13;12;
73623;PMS5003;61921;53.226;-1.296;2023-02-28T10:40:41;14;10;
73623;PMS5003;61921;53.226;-1.296;2023-02-28T10:43:20;11;11;
73623;PMS5003;61921;53.226;-1.296;2023-02-28T10:45:32;9;9;
73623;PMS5003;61921;53.226;-1.296;2023-02-28T10:47:57;10;10;
73623;PMS5003;61921;53.226;-1.296;2023-02-28T10:50:26;9;8;
73623;PMS5003;61921;53.226;-1.296;2023-02-28T10:52:47;10;10;
73623;PMS5003;61921;53.226;-1.296;2023-02-28T10:55:14;9;9;
73623;PMS5003;61921;53.226;-1.296;2023-02-28T10:57:38;12;8;
73623;PMS5003;61921;53.226;-1.296;2023-02-28T11:00:08;9;9;
73623;PMS5003;61921;53.226;-1.296;2023-02-28T11:02:31;7;7;
73623;PMS5003;61921;53.226;-1.296;2023-02-28T11:04:55;11;10;
73623;PMS5003;61921;53.226;-1.296;2023-02-28T11:07:21;10;9;
73623;PMS5003;61921;53.226;-1.296;2023-02-28T11:09:47;6;5;
73623;PMS5003;61921;53.226;-1.296;2023-02-28T11:14:39;7;7;
73623;PMS5003;61921;53.226;-1.296;2023-02-28T11:17:11;9;7;
73623;PMS5003;61921;53.226;-1.296;2023-02-28T11:19:29;6;6;
73623;PMS5003;61921;53.226;-1.296;2023-02-28T11:21:54;5;5;
73623;PMS5003;61921;53.226;-1.296;2023-02-28T11:24:21;7;7;
73623;PMS5003;61921;53.226;-1.296;2023-02-28T11:26:46;6;5;
73623;PMS5003;61921;53.226;-1.296;2023-02-28T11:29:15;7;6;
73623;PMS5003;61921;53.226;-1.296;2023-02-28T11:31:36;6;6;
73623;PMS5003;61921;53.226;-1.296;2023-02-28T11:34:10;11;8;
73623;PMS5003;61921;53.226;-1.296;2023-02-28T11:36:29;7;7;
73623;PMS5003;61921;53.226;-1.296;2023-02-28T11:38:53;7;5;
73623;PMS5003;61921;53.226;-1.296;2023-02-28T11:41:22;6;6;
73623;PMS5003;61921;53.226;-1.296;2023-02-28T11:43:49;5;5;
73623;PMS5003;61921;53.226;-1.296;2023-02-28T11:46:13;5;5;
73623;PMS5003;61921;53.226;-1.296;2023-02-28T11:48:38;6;5;
73623;PMS5003;61921;53.226;-1.296;2023-02-28T11:51:04;8;7;
73623;PMS5003;61921;53.226;-1.296;2023-02-28T11:53:31;7;6;
73623;PMS5003;61921;53.226;-1.296;2023-02-28T11:55:52;8;6;
73623;PMS5003;61921;53.226;-1.296;2023-02-28T11:58:20;8;5;
73623;PMS5003;61921;53.226;-1.296;2023-02-28T12:00:48;7;7;
73623;PMS5003;61921;53.226;-1.296;2023-02-28T12:03:12;7;6;
73623;PMS5003;61921;53.226;-1.296;2023-02-28T12:05:34;5;5;
73623;PMS5003;61921;53.226;-1.296;2023-02-28T12:08:03;8;8;
73623;PMS5003;61921;53.226;-1.296;2023-02-28T12:10:26;8;8;
73623;PMS5003;61921;53.226;-1.296;2023-02-28T12:12:53;7;6;
73623;PMS5003;61921;53.226;-1.296;2023-02-28T12:17:45;7;7;
73623;PMS5003;61921;53.226;-1.296;2023-02-28T12:20:09;6;6;
73623;PMS5003;61921;53.226;-1.296;2023-02-28T12:22:32;8;7;
73623;PMS5003;61921;53.226;-1.296;2023-02-28T12:25:09;8;6;
73623;PMS5003;61921;53.226;-1.296;2023-02-28T12:27:24;6;6;
73623;PMS5003;61921;53.226;-1.296;2023-02-28T12:29:49;4;4;
73623;PMS5003;61921;53.226;-1.296;2023-02-28T12:32:15;4;4;
73623;PMS5003;61921;53.226;-1.296;2023-02-28T12:34:41;4;4;
73623;PMS5003;61921;53.226;-1.296;2023-02-28T12:37:06;4;4;
73623;PMS5003;61921;53.226;-1.296;2023-02-28T12:39:32;5;4;
73623;PMS5003;61921;53.226;-1.296;2023-02-28T12:41:57;4;3;
73623;PMS5003;61921;53.226;-1.296;2023-02-28T12:44:23;5;5;
73623;PMS5003;61921;53.226;-1.296;2023-02-28T12:46:48;6;6;
73623;PMS5003;61921;53.226;-1.296;2023-02-28T12:49:13;4;4;
73623;PMS5003;61921;53.226;-1.296;2023-02-28T12:51:38;8;8;
73623;PMS5003;61921;53.226;-1.296;2023-02-28T12:54:09;8;7;
73623;PMS5003;61921;53.226;-1.296;2023-02-28T12:56:32;67;64;
73623;PMS5003;61921;53.226;-1.296;2023-02-28T12:58:54;121;119;
73623;PMS5003;61921;53.226;-1.296;2023-02-28T13:01:28;150;141;
73623;PMS5003;61921;53.226;-1.296;2023-02-28T13:03:51;105;98;
73623;PMS5003;61921;53.226;-1.296;2023-02-28T13:06:13;29;27;
73623;PMS5003;61921;53.226;-1.296;2023-02-28T13:08:41;30;29;
73623;PMS5003;61921;53.226;-1.296;2023-02-28T13:11:00;10;8;
73623;PMS5003;61921;53.226;-1.296;2023-02-28T13:13:26;5;5;
73623;PMS5003;61921;53.226;-1.296;2023-02-28T13:15:58;7;7;
73623;PMS5003;61921;53.226;-1.296;2023-02-28T13:20:47;35;32;
73623;PMS5003;61921;53.226;-1.296;2023-02-28T13:27:59;44;43;
73623;PMS5003;61921;53.226;-1.296;2023-02-28T13:37:43;50;47;
73623;PMS5003;61921;53.226;-1.296;2023-02-28T13:42:33;33;30;
73623;PMS5003;61921;53.226;-1.296;2023-02-28T13:47:27;35;32;
73623;PMS5003;61921;53.226;-1.296;2023-02-28T13:49:50;34;32;
73623;PMS5003;61921;53.226;-1.296;2023-02-28T13:52:17;23;21;
73623;PMS5003;61921;53.226;-1.296;2023-02-28T13:54:43;28;24;
73623;PMS5003;61921;53.226;-1.296;2023-02-28T13:57:10;24;24;
73623;PMS5003;61921;53.226;-1.296;2023-02-28T13:59:33;30;30;
73623;PMS5003;61921;53.226;-1.296;2023-02-28T14:02:01;31;30;
73623;PMS5003;61921;53.226;-1.296;2023-02-28T14:06:48;13;13;
73623;PMS5003;61921;53.226;-1.296;2023-02-28T14:09:17;9;7;
73623;PMS5003;61921;53.226;-1.296;2023-02-28T14:11:40;7;7;
73623;PMS5003;61921;53.226;-1.296;2023-02-28T14:14:05;7;7;
73623;PMS5003;61921;53.226;-1.296;2023-02-28T14:16:35;6;6;
73623;PMS5003;61921;53.226;-1.296;2023-02-28T14:18:56;7;7;
73623;PMS5003;61921;53.226;-1.296;2023-02-28T14:21:21;12;11;
73623;PMS5003;61921;53.226;-1.296;2023-02-28T14:23:50;11;10;
73623;PMS5003;61921;53.226;-1.296;2023-02-28T14:26:14;10;8;
73623;PMS5003;61921;53.226;-1.296;2023-02-28T14:28:43;10;8;
73623;PMS5003;61921;53.226;-1.296;2023-02-28T14:31:04;9;9;
73623;PMS5003;61921;53.226;-1.296;2023-02-28T14:33:32;10;9;
73623;PMS5003;61921;53.226;-1.296;2023-02-28T14:35:58;7;5;
73623;PMS5003;61921;53.226;-1.296;2023-02-28T14:38:20;5;5;
73623;PMS5003;61921;53.226;-1.296;2023-02-28T14:40:45;5;5;
73623;PMS5003;61921;53.226;-1.296;2023-02-28T14:45:36;7;7;
73623;PMS5003;61921;53.226;-1.296;2023-02-28T14:48:02;5;5;
73623;PMS5003;61921;53.226;-1.296;2023-02-28T14:50:31;5;5;
73623;PMS5003;61921;53.226;-1.296;2023-02-28T14:52:53;10;8;
73623;PMS5003;61921;53.226;-1.296;2023-02-28T14:55:19;7;7;
73623;PMS5003;61921;53.226;-1.296;2023-02-28T15:00:13;6;6;
73623;PMS5003;61921;53.226;-1.296;2023-02-28T15:02:35;5;5;
73623;PMS5003;61921;53.226;-1.296;2023-02-28T15:05:01;6;5;
73623;PMS5003;61921;53.226;-1.296;2023-02-28T15:07:26;5;5;
73623;PMS5003;61921;53.226;-1.296;2023-02-28T15:12:17;6;6;
73623;PMS5003;61921;53.226;-1.296;2023-02-28T15:14:42;5;5;
73623;PMS5003;61921;53.226;-1.296;2023-02-28T15:17:11;9;5;
73623;PMS5003;61921;53.226;-1.296;2023-02-28T15:19:34;7;5;
73623;PMS5003;61921;53.226;-1.296;2023-02-28T15:21:59;5;4;
73623;PMS5003;61921;53.226;-1.296;2023-02-28T15:24:27;7;3;
73623;PMS5003;61921;53.226;-1.296;2023-02-28T15:26:51;4;4;
73623;PMS5003;61921;53.226;-1.296;2023-02-28T15:29:15;5;5;
73623;PMS5003;61921;53.226;-1.296;2023-02-28T15:31:43;6;5;
73623;PMS5003;61921;53.226;-1.296;2023-02-28T15:34:06;7;7;
73623;PMS5003;61921;53.226;-1.296;2023-02-28T15:36:32;5;5;
73623;PMS5003;61921;53.226;-1.296;2023-02-28T15:38:57;4;4;
73623;PMS5003;61921;53.226;-1.296;2023-02-28T15:41:24;4;4;
73623;PMS5003;61921;53.226;-1.296;2023-02-28T15:43:48;4;4;
73623;PMS5003;61921;53.226;-1.296;2023-02-28T15:46:14;2;2;
73623;PMS5003;61921;53.226;-1.296;2023-02-28T15:48:42;4;4;
73623;PMS5003;61921;53.226;-1.296;2023-02-28T15:51:06;4;4;
73623;PMS5003;61921;53.226;-1.296;2023-02-28T15:53:31;5;4;
73623;PMS5003;61921;53.226;-1.296;2023-02-28T15:55:59;7;7;
73623;PMS5003;61921;53.226;-1.296;2023-02-28T15:58:21;6;4;
73623;PMS5003;61921;53.226;-1.296;2023-02-28T16:00:59;6;5;
73623;PMS5003;61921;53.226;-1.296;2023-02-28T16:05:38;5;4;
73623;PMS5003;61921;53.226;-1.296;2023-02-28T16:10:29;6;4;
73623;PMS5003;61921;53.226;-1.296;2023-02-28T16:12:55;6;5;
73623;PMS5003;61921;53.226;-1.296;2023-02-28T16:15:21;5;4;
73623;PMS5003;61921;53.226;-1.296;2023-02-28T16:17:46;5;5;
73623;PMS5003;61921;53.226;-1.296;2023-02-28T16:20:12;3;3;
73623;PMS5003;61921;53.226;-1.296;2023-02-28T16:22:37;7;6;
73623;PMS5003;61921;53.226;-1.296;2023-02-28T16:25:02;4;4;
73623;PMS5003;61921;53.226;-1.296;2023-02-28T16:27:30;3;3;
73623;PMS5003;61921;53.226;-1.296;2023-02-28T16:29:53;3;3;
73623;PMS5003;61921;53.226;-1.296;2023-02-28T16:32:19;4;4;
73623;PMS5003;61921;53.226;-1.296;2023-02-28T16:34:44;9;3;
73623;PMS5003;61921;53.226;-1.296;2023-02-28T16:37:11;4;4;
73623;PMS5003;61921;53.226;-1.296;2023-02-28T16:39:35;6;5;
73623;PMS5003;61921;53.226;-1.296;2023-02-28T16:42:01;5;4;
73623;PMS5003;61921;53.226;-1.296;2023-02-28T16:44:27;7;6;